Time;durP1;ratioP1;P1;durP2;ratioP2;P2;SDS_P1;SDS_P2;PMS_P1;PMS_P2;Temp;Humidity;BMP_temperature;BMP_pressure;BME280_temperature;BME280_humidity;BME280_pressure;Samples;Min_cycle;Max_cycle;Signal;HPM_P1;HPM_P2
2023/04/06 00:01:38;;;;;;;17.40;13.70;;;12.80;99.90;;;;;;5033364;28;20399;-75
2023/04/06 00:04:04;;;;;;;18.73;13.20;;;12.80;99.90;;;;;;5016430;28;20038;-75
2023/04/06 00:06:31;;;;;;;17.25;13.52;;;12.80;99.90;;;;;;5033501;28;20033;-75
2023/04/06 00:08:57;;;;;;;17.77;13.93;;;12.80;99.90;;;;;;5034715;28;20037;-75
2023/04/06 00:11:24;;;;;;;16.30;13.73;;;12.70;99.90;;;;;;5034727;28;20039;-75
2023/04/06 00:13:50;;;;;;;22.15;14.68;;;12.80;99.90;;;;;;5033411;28;20029;-75
2023/04/06 00:16:17;;;;;;;19.15;14.45;;;12.70;99.90;;;;;;5033069;28;20405;-75
2023/04/06 00:18:43;;;;;;;19.85;13.98;;;12.80;99.90;;;;;;5017093;28;20029;-75
2023/04/06 00:21:11;;;;;;;15.80;13.63;;;12.80;99.90;;;;;;5016569;28;20040;-75
2023/04/06 00:23:37;;;;;;;20.73;13.95;;;12.70;99.90;;;;;;5033287;28;20037;-75
2023/04/06 00:26:03;;;;;;;21.00;13.93;;;12.80;99.90;;;;;;5036647;28;20398;-75
2023/04/06 00:28:29;;;;;;;19.88;14.20;;;12.80;99.90;;;;;;5054014;28;20041;-75
2023/04/06 00:30:56;;;;;;;20.02;14.23;;;12.80;99.90;;;;;;5052715;28;20033;-75
2023/04/06 00:33:22;;;;;;;18.33;14.13;;;12.70;99.90;;;;;;5053106;28;20044;-75
2023/04/06 00:35:48;;;;;;;18.85;13.82;;;12.70;99.90;;;;;;5053173;28;20036;-75
2023/04/06 00:38:15;;;;;;;19.95;13.55;;;12.70;99.90;;;;;;5052999;28;20030;-75
2023/04/06 00:40:41;;;;;;;19.73;13.40;;;12.70;99.90;;;;;;5052422;28;20037;-75
2023/04/06 00:43:10;;;;;;;17.58;13.88;;;12.70;99.90;;;;;;5052589;28;20029;-75
2023/04/06 00:45:38;;;;;;;16.45;13.20;;;12.70;99.90;;;;;;5052431;28;20036;-75
2023/04/06 00:48:05;;;;;;;19.67;13.57;;;12.60;99.90;;;;;;5052707;28;20025;-75
2023/04/06 00:50:31;;;;;;;17.48;13.82;;;12.60;99.90;;;;;;5044660;28;20040;-75
2023/04/06 00:52:58;;;;;;;20.48;13.90;;;12.60;99.90;;;;;;5016472;28;20041;-76
2023/04/06 00:55:25;;;;;;;20.23;13.68;;;12.60;99.90;;;;;;5015374;28;20033;-75
2023/04/06 00:57:51;;;;;;;18.98;13.75;;;12.70;99.90;;;;;;5032536;28;20017;-76
2023/04/06 01:00:18;;;;;;;15.15;13.55;;;12.70;99.90;;;;;;5015762;28;20033;-75
2023/04/06 01:02:45;;;;;;;21.77;15.05;;;12.70;99.90;;;;;;5032586;28;20021;-75
2023/04/06 01:05:11;;;;;;;16.88;14.20;;;12.70;99.90;;;;;;5016297;28;20029;-76
2023/04/06 01:07:37;;;;;;;17.95;14.40;;;12.70;99.90;;;;;;5033808;28;20026;-75
2023/04/06 01:10:04;;;;;;;15.90;13.85;;;12.60;99.90;;;;;;5016138;28;20033;-75
2023/04/06 01:12:30;;;;;;;17.45;13.85;;;12.60;99.90;;;;;;5033136;28;20034;-76
2023/04/06 01:14:56;;;;;;;16.23;13.45;;;12.60;99.90;;;;;;5033692;28;20033;-75
2023/04/06 01:17:22;;;;;;;18.30;13.93;;;12.70;99.90;;;;;;5031925;28;20030;-75
2023/04/06 01:19:49;;;;;;;17.00;14.43;;;12.70;99.90;;;;;;5033583;28;20041;-76
2023/04/06 01:22:16;;;;;;;16.70;13.05;;;12.70;99.90;;;;;;5032337;28;20030;-75
2023/04/06 01:24:42;;;;;;;22.02;13.38;;;12.70;99.90;;;;;;5032117;28;20033;-76
2023/04/06 01:27:08;;;;;;;15.38;13.18;;;12.70;99.90;;;;;;5027870;28;20044;-75
2023/04/06 01:29:35;;;;;;;17.63;13.25;;;12.70;99.90;;;;;;5053040;28;20036;-75
2023/04/06 01:32:01;;;;;;;16.65;13.07;;;12.60;99.90;;;;;;5051594;28;20032;-76
2023/04/06 01:34:27;;;;;;;16.73;14.00;;;12.70;99.90;;;;;;5051963;28;20029;-76
2023/04/06 01:36:53;;;;;;;19.58;14.02;;;12.60;99.90;;;;;;5053187;28;20464;-76
2023/04/06 01:39:20;;;;;;;22.48;13.43;;;12.60;99.90;;;;;;5051515;28;20029;-75
2023/04/06 01:41:48;;;;;;;21.05;14.40;;;12.60;99.90;;;;;;5051826;28;20484;-75
2023/04/06 01:44:18;;;;;;;20.60;14.85;;;12.50;99.90;;;;;;5023887;28;20040;-75
2023/04/06 01:46:45;;;;;;;18.75;14.07;;;12.50;99.90;;;;;;5018748;28;20492;-75
2023/04/06 01:49:12;;;;;;;19.00;14.63;;;12.60;99.90;;;;;;5012152;28;20041;-75
2023/04/06 01:51:38;;;;;;;17.13;13.80;;;12.60;99.90;;;;;;5029742;28;20400;-75
2023/04/06 01:54:04;;;;;;;17.95;13.23;;;12.60;99.90;;;;;;5031461;28;20036;-76
2023/04/06 01:56:30;;;;;;;20.75;14.13;;;12.60;99.90;;;;;;5015395;28;20561;-75
2023/04/06 01:58:56;;;;;;;18.42;14.48;;;12.60;99.90;;;;;;5032629;28;20037;-75
2023/04/06 02:01:23;;;;;;;19.98;14.85;;;12.50;99.90;;;;;;5013637;28;20037;-75
2023/04/06 02:03:49;;;;;;;17.20;14.40;;;12.50;99.90;;;;;;5010481;28;20031;-75
2023/04/06 02:06:15;;;;;;;21.15;14.45;;;12.50;99.90;;;;;;5030334;28;20383;-76
2023/04/06 02:08:41;;;;;;;18.80;14.35;;;12.40;99.90;;;;;;5032338;28;20021;-76
2023/04/06 02:11:07;;;;;;;18.73;14.38;;;12.40;99.90;;;;;;5030975;28;20029;-76
2023/04/06 02:13:33;;;;;;;20.67;15.38;;;12.40;99.90;;;;;;5029937;28;20028;-76
2023/04/06 02:15:59;;;;;;;17.85;13.65;;;12.50;99.90;;;;;;5029320;28;20025;-75
2023/04/06 02:18:25;;;;;;;18.20;14.70;;;12.40;99.90;;;;;;5029929;28;20037;-76
2023/04/06 02:20:52;;;;;;;18.95;15.15;;;12.30;99.90;;;;;;5031046;28;20022;-76
2023/04/06 02:23:18;;;;;;;20.75;16.27;;;12.30;99.90;;;;;;5030822;28;20033;-76
2023/04/06 02:25:44;;;;;;;21.23;14.07;;;12.30;99.90;;;;;;5030991;28;20162;-76
2023/04/06 02:28:10;;;;;;;18.88;14.18;;;12.30;99.90;;;;;;5012797;28;20046;-76
2023/04/06 02:30:36;;;;;;;18.33;16.20;;;12.20;99.90;;;;;;5030706;28;20038;-75
2023/04/06 02:33:02;;;;;;;18.08;14.70;;;12.10;99.90;;;;;;5030913;28;20041;-76
2023/04/06 02:35:29;;;;;;;18.13;14.52;;;12.20;99.90;;;;;;5029622;28;20476;-76
2023/04/06 02:37:55;;;;;;;21.98;15.18;;;12.20;99.90;;;;;;5030442;28;20312;-76
2023/04/06 02:40:21;;;;;;;21.73;15.65;;;12.20;99.90;;;;;;5032423;28;20403;-76
2023/04/06 02:42:47;;;;;;;20.25;15.30;;;12.20;99.90;;;;;;5032144;28;20048;-76
2023/04/06 02:45:14;;;;;;;18.95;15.88;;;12.10;99.90;;;;;;5030682;28;20468;-75
2023/04/06 02:47:40;;;;;;;19.80;16.17;;;12.10;99.90;;;;;;5032435;28;20030;-76
2023/04/06 02:50:06;;;;;;;21.92;16.77;;;12.10;99.90;;;;;;5025263;28;20137;-76
2023/04/06 02:52:32;;;;;;;20.70;16.33;;;12.10;99.90;;;;;;5012018;28;20054;-76
2023/04/06 02:54:58;;;;;;;20.17;16.20;;;12.10;99.90;;;;;;4978762;28;20041;-76
2023/04/06 02:57:25;;;;;;;21.15;16.23;;;12.20;99.90;;;;;;4994840;28;20052;-75
2023/04/06 02:59:51;;;;;;;19.15;16.30;;;12.20;99.90;;;;;;5011119;28;20037;-76
2023/04/06 03:02:17;;;;;;;24.15;15.82;;;12.20;99.90;;;;;;5010826;28;20026;-76
2023/04/06 03:04:44;;;;;;;19.75;15.32;;;12.20;99.90;;;;;;5011136;28;20034;-75
2023/04/06 03:07:10;;;;;;;17.80;15.50;;;12.20;99.90;;;;;;5010862;28;20029;-76
2023/04/06 03:09:37;;;;;;;18.08;15.82;;;12.30;99.90;;;;;;5012044;28;20480;-76
2023/04/06 03:12:03;;;;;;;20.33;16.77;;;12.20;99.90;;;;;;4994914;28;20029;-76
2023/04/06 03:14:29;;;;;;;22.02;16.42;;;12.20;99.90;;;;;;5012432;28;20033;-76
2023/04/06 03:16:55;;;;;;;20.13;16.83;;;12.20;99.90;;;;;;5010300;28;20041;-76
2023/04/06 03:19:21;;;;;;;20.70;16.50;;;12.10;99.90;;;;;;5013225;28;20033;-75
2023/04/06 03:21:47;;;;;;;20.27;16.45;;;12.10;99.90;;;;;;5014637;28;20033;-76
2023/04/06 03:24:14;;;;;;;20.90;16.98;;;12.20;99.90;;;;;;5015828;28;20041;-76
2023/04/06 03:26:40;;;;;;;21.23;17.15;;;12.10;99.90;;;;;;5023052;28;20029;-76
2023/04/06 03:29:06;;;;;;;19.98;17.17;;;12.10;99.90;;;;;;5034213;28;20384;-76
2023/04/06 03:31:32;;;;;;;19.38;16.67;;;12.20;99.90;;;;;;5033759;28;20036;-76
2023/04/06 03:33:59;;;;;;;22.80;18.20;;;12.20;99.90;;;;;;5035360;28;20031;-75
2023/04/06 03:36:26;;;;;;;23.55;18.60;;;12.20;99.90;;;;;;5035155;28;20033;-76
2023/04/06 03:38:53;;;;;;;22.00;18.52;;;12.20;99.90;;;;;;5034170;28;20353;-76
2023/04/06 03:41:19;;;;;;;23.40;18.10;;;12.20;99.90;;;;;;5034150;28;20041;-76
2023/04/06 03:43:45;;;;;;;20.25;18.10;;;12.20;99.90;;;;;;5035446;28;20033;-75
2023/04/06 03:46:11;;;;;;;20.48;18.27;;;12.20;99.90;;;;;;5034876;28;20511;-76
2023/04/06 03:48:38;;;;;;;20.85;17.33;;;12.20;99.90;;;;;;5033852;28;20041;-75
2023/04/06 03:51:04;;;;;;;19.85;17.35;;;12.20;99.90;;;;;;5020135;28;20042;-76
2023/04/06 03:53:30;;;;;;;24.00;18.58;;;12.20;99.90;;;;;;5013904;28;20034;-76
2023/04/06 03:55:56;;;;;;;20.88;18.25;;;12.20;99.90;;;;;;5015402;28;20030;-75
2023/04/06 03:58:22;;;;;;;22.42;18.63;;;12.20;99.90;;;;;;5014064;28;20037;-76
2023/04/06 04:00:48;;;;;;;20.95;18.70;;;12.20;99.90;;;;;;4997356;28;20030;-76
2023/04/06 04:03:14;;;;;;;20.52;18.13;;;12.20;99.90;;;;;;5015139;28;20045;-75
2023/04/06 04:05:40;;;;;;;19.95;17.50;;;12.20;99.90;;;;;;5015105;28;20384;-76
2023/04/06 04:08:07;;;;;;;19.77;17.70;;;12.20;99.90;;;;;;4980945;28;20046;-76
2023/04/06 04:10:33;;;;;;;19.73;16.85;;;12.10;99.90;;;;;;5015015;28;20037;-76
2023/04/06 04:12:59;;;;;;;21.38;18.08;;;12.20;99.90;;;;;;5014993;28;20453;-75
2023/04/06 04:15:25;;;;;;;20.20;17.63;;;12.10;99.90;;;;;;5014898;28;20034;-75
2023/04/06 04:17:51;;;;;;;21.40;17.67;;;12.20;99.90;;;;;;5014931;28;20030;-76
2023/04/06 04:20:17;;;;;;;17.90;16.02;;;12.10;99.90;;;;;;5014510;28;20029;-76
2023/04/06 04:22:43;;;;;;;23.42;16.77;;;12.10;99.90;;;;;;5014782;28;20041;-76
2023/04/06 04:25:09;;;;;;;21.27;16.75;;;12.00;99.90;;;;;;5014787;28;20033;-76
2023/04/06 04:27:35;;;;;;;19.70;16.48;;;12.00;99.90;;;;;;5029596;28;20045;-76
2023/04/06 04:30:02;;;;;;;21.25;16.08;;;12.00;99.90;;;;;;5034182;28;20041;-75
2023/04/06 04:32:28;;;;;;;19.92;16.10;;;12.00;99.90;;;;;;5033833;28;20403;-76
2023/04/06 04:34:54;;;;;;;22.88;16.83;;;12.10;99.90;;;;;;5032903;28;20040;-75
2023/04/06 04:37:20;;;;;;;19.52;15.73;;;12.00;99.90;;;;;;5034300;28;20028;-75
2023/04/06 04:39:46;;;;;;;20.20;17.02;;;12.00;99.90;;;;;;5032842;28;20041;-76
2023/04/06 04:42:12;;;;;;;19.98;15.68;;;12.10;99.90;;;;;;5032993;28;20026;-76
2023/04/06 04:44:38;;;;;;;23.23;16.33;;;12.10;99.90;;;;;;5021913;28;20048;-75
2023/04/06 04:47:05;;;;;;;20.92;15.70;;;12.10;99.90;;;;;;5033916;28;20037;-76
2023/04/06 04:49:31;;;;;;;21.50;16.33;;;12.10;99.90;;;;;;5033526;28;20053;-76
2023/04/06 04:51:57;;;;;;;22.75;16.65;;;12.10;99.90;;;;;;5032702;28;20060;-75
2023/04/06 04:54:23;;;;;;;22.50;16.67;;;12.10;99.90;;;;;;5033989;28;20045;-76
2023/04/06 04:56:50;;;;;;;23.00;16.98;;;12.10;99.90;;;;;;5015796;28;20408;-76
2023/04/06 04:59:16;;;;;;;20.85;17.00;;;12.10;99.90;;;;;;5032951;28;20028;-75
2023/04/06 05:01:42;;;;;;;20.17;15.98;;;12.10;99.90;;;;;;5015881;28;20049;-75
2023/04/06 05:04:08;;;;;;;24.95;16.67;;;12.10;99.90;;;;;;5033502;28;20379;-75
2023/04/06 05:06:35;;;;;;;18.88;15.85;;;12.10;99.90;;;;;;5033697;28;20033;-76
2023/04/06 05:09:01;;;;;;;20.83;15.80;;;12.10;99.90;;;;;;5033678;28;20041;-76
2023/04/06 05:11:27;;;;;;;22.08;16.38;;;12.10;99.90;;;;;;5032570;28;20535;-76
2023/04/06 05:13:53;;;;;;;22.13;16.33;;;12.00;99.90;;;;;;5016188;28;20037;-75
2023/04/06 05:16:20;;;;;;;21.77;16.95;;;12.10;99.90;;;;;;5031926;28;20042;-76
2023/04/06 05:18:47;;;;;;;22.67;16.92;;;12.10;99.90;;;;;;5015646;28;20468;-75
2023/04/06 05:21:14;;;;;;;22.65;16.95;;;12.00;99.90;;;;;;5032344;28;20040;-76
2023/04/06 05:23:40;;;;;;;21.00;16.27;;;12.00;99.90;;;;;;5032316;28;20025;-76
2023/04/06 05:26:06;;;;;;;19.55;16.92;;;12.00;99.90;;;;;;5032121;28;20033;-75
2023/04/06 05:28:32;;;;;;;22.92;17.25;;;12.00;99.90;;;;;;5032171;28;20026;-76
2023/04/06 05:30:58;;;;;;;20.00;16.30;;;11.90;99.90;;;;;;5032621;28;20056;-76
2023/04/06 05:33:26;;;;;;;19.35;15.38;;;11.90;99.90;;;;;;5032948;28;20461;-76
2023/04/06 05:35:52;;;;;;;22.83;16.27;;;11.90;99.90;;;;;;5032069;28;20044;-76
2023/04/06 05:38:18;;;;;;;19.65;16.25;;;11.70;99.90;;;;;;5033134;28;20387;-76
2023/04/06 05:40:44;;;;;;;19.73;16.23;;;11.70;99.90;;;;;;5031406;28;20037;-76
2023/04/06 05:43:10;;;;;;;19.60;16.35;;;11.60;99.90;;;;;;5029672;28;20040;-76
2023/04/06 05:45:36;;;;;;;22.67;17.33;;;11.70;99.90;;;;;;5011520;28;20042;-75
2023/04/06 05:48:02;;;;;;;20.70;15.43;;;11.60;99.90;;;;;;5011760;28;20106;-75
2023/04/06 05:50:29;;;;;;;20.83;16.55;;;11.60;99.90;;;;;;5020370;28;20033;-74
2023/04/06 05:52:55;;;;;;;18.65;15.63;;;11.60;99.90;;;;;;5032932;28;20395;-76
2023/04/06 05:55:21;;;;;;;20.70;16.40;;;11.50;99.90;;;;;;5032979;28;20056;-75
2023/04/06 05:57:47;;;;;;;18.60;16.52;;;11.40;99.90;;;;;;5032091;28;20077;-76
2023/04/06 06:00:14;;;;;;;18.95;16.33;;;11.50;99.90;;;;;;5030603;28;20060;-75
2023/04/06 06:02:42;;;;;;;21.52;16.73;;;11.50;99.90;;;;;;5032362;28;20058;-75
2023/04/06 06:05:09;;;;;;;21.48;17.13;;;11.50;99.90;;;;;;5032729;28;20037;-75
2023/04/06 06:07:36;;;;;;;18.55;16.02;;;11.50;99.90;;;;;;5032590;28;20469;-76
2023/04/06 06:10:02;;;;;;;23.20;16.27;;;11.50;99.90;;;;;;5031366;28;20034;-76
2023/04/06 06:12:28;;;;;;;17.98;16.17;;;11.50;99.90;;;;;;5015018;28;20032;-76
2023/04/06 06:14:55;;;;;;;18.83;16.27;;;11.50;99.90;;;;;;5031083;28;20041;-76
2023/04/06 06:17:21;;;;;;;18.23;16.25;;;11.50;99.90;;;;;;5014532;28;20060;-75
2023/04/06 06:19:47;;;;;;;19.38;15.88;;;11.60;99.90;;;;;;5032490;28;20029;-75
2023/04/06 06:22:13;;;;;;;17.25;15.27;;;11.60;99.90;;;;;;5031248;28;20044;-76
2023/04/06 06:24:39;;;;;;;17.90;16.02;;;11.70;99.90;;;;;;5032448;28;20432;-75
2023/04/06 06:27:07;;;;;;;21.08;15.85;;;11.70;99.90;;;;;;5030731;28;20037;-75
2023/04/06 06:29:33;;;;;;;19.67;16.63;;;11.70;99.90;;;;;;5030433;28;20037;-76
2023/04/06 06:31:59;;;;;;;22.85;16.50;;;11.70;99.90;;;;;;5030515;28;20038;-76
2023/04/06 06:34:26;;;;;;;18.33;16.38;;;11.70;99.90;;;;;;5032413;28;20055;-76
2023/04/06 06:36:54;;;;;;;19.73;16.45;;;11.70;99.90;;;;;;5032315;28;20036;-75
2023/04/06 06:39:20;;;;;;;26.77;16.27;;;11.60;99.90;;;;;;5032226;28;20029;-76
2023/04/06 06:41:46;;;;;;;20.83;15.48;;;11.60;99.90;;;;;;5031037;28;20037;-76
2023/04/06 06:44:13;;;;;;;18.35;16.25;;;11.50;99.90;;;;;;5020119;28;20030;-76
2023/04/06 06:46:39;;;;;;;18.55;15.65;;;11.50;99.90;;;;;;5010656;28;20034;-75
2023/04/06 06:49:05;;;;;;;21.92;16.35;;;11.50;99.90;;;;;;5011014;28;20026;-76
2023/04/06 06:51:31;;;;;;;18.13;15.32;;;11.50;99.90;;;;;;5028224;28;20393;-76
2023/04/06 06:53:57;;;;;;;19.67;16.48;;;11.50;99.90;;;;;;5032452;28;20030;-76
2023/04/06 06:56:23;;;;;;;20.25;15.40;;;11.50;99.90;;;;;;5035066;28;20037;-76
2023/04/06 06:58:49;;;;;;;20.60;16.30;;;11.50;99.90;;;;;;5034550;28;20026;-76
2023/04/06 07:01:15;;;;;;;17.85;15.38;;;11.60;99.90;;;;;;5034468;28;20496;-74
2023/04/06 07:03:42;;;;;;;17.50;15.07;;;11.60;99.90;;;;;;5018413;28;20393;-76
2023/04/06 07:06:08;;;;;;;17.88;15.35;;;11.70;99.90;;;;;;5036067;28;20044;-75
2023/04/06 07:08:34;;;;;;;21.75;15.95;;;11.70;99.90;;;;;;5034245;28;20046;-76
2023/04/06 07:11:00;;;;;;;18.98;14.18;;;11.80;99.90;;;;;;5017498;28;20393;-75
2023/04/06 07:13:27;;;;;;;17.77;14.73;;;11.80;99.90;;;;;;5035565;28;20030;-75
2023/04/06 07:15:53;;;;;;;16.77;14.40;;;12.00;99.90;;;;;;5035168;28;20034;-76
2023/04/06 07:18:19;;;;;;;15.85;13.98;;;12.00;99.90;;;;;;5035618;28;20037;-76
2023/04/06 07:20:45;;;;;;;17.05;14.20;;;12.00;99.90;;;;;;5034607;28;20033;-75
2023/04/06 07:23:11;;;;;;;19.73;14.18;;;12.00;99.90;;;;;;5035667;28;20040;-76
2023/04/06 07:25:38;;;;;;;16.20;13.80;;;12.00;99.90;;;;;;5034603;28;20029;-76
2023/04/06 07:28:04;;;;;;;19.27;14.60;;;12.00;99.90;;;;;;4997776;28;20061;-75
2023/04/06 07:30:30;;;;;;;16.67;14.32;;;11.90;99.90;;;;;;4997694;28;20038;-75
2023/04/06 07:32:56;;;;;;;20.38;13.65;;;12.00;99.90;;;;;;5014561;28;20042;-76
2023/04/06 07:35:26;;;;;;;20.55;14.77;;;12.00;99.90;;;;;;5014489;28;20030;-75
2023/04/06 07:37:53;;;;;;;15.00;13.38;;;12.20;99.90;;;;;;5015336;28;20392;-75
2023/04/06 07:40:19;;;;;;;17.23;13.40;;;12.30;99.90;;;;;;5014429;28;20030;-76
2023/04/06 07:42:45;;;;;;;17.65;12.40;;;12.40;99.90;;;;;;5015260;28;20037;-76
2023/04/06 07:45:12;;;;;;;16.42;12.45;;;12.60;99.90;;;;;;5033680;28;20033;-75
2023/04/06 07:47:38;;;;;;;15.85;11.93;;;12.60;99.90;;;;;;5034065;28;20037;-75
2023/04/06 07:50:05;;;;;;;14.68;11.88;;;12.50;99.90;;;;;;5029836;28;20109;-75
2023/04/06 07:52:31;;;;;;;16.48;12.15;;;12.60;99.90;;;;;;4997642;28;20488;-76
2023/04/06 07:54:58;;;;;;;18.80;13.32;;;12.60;99.90;;;;;;4997899;28;20110;-76
2023/04/06 07:57:24;;;;;;;14.98;12.32;;;12.60;99.90;;;;;;5014842;28;20030;-75
2023/04/06 07:59:51;;;;;;;16.48;12.30;;;12.60;99.90;;;;;;5014185;28;20033;-75
2023/04/06 08:02:17;;;;;;;15.27;12.13;;;12.60;99.90;;;;;;5013636;28;20061;-76
2023/04/06 08:04:43;;;;;;;16.90;11.82;;;12.60;99.90;;;;;;4997205;28;20034;-75
2023/04/06 08:07:10;;;;;;;14.70;12.05;;;12.50;99.90;;;;;;4997695;28;20384;-76
2023/04/06 08:09:36;;;;;;;14.18;12.30;;;12.50;99.90;;;;;;5013646;28;20034;-76
2023/04/06 08:12:02;;;;;;;19.42;12.70;;;12.60;99.90;;;;;;4980822;28;20049;-76
2023/04/06 08:14:28;;;;;;;15.75;13.15;;;12.70;99.90;;;;;;5013966;28;20041;-76
2023/04/06 08:16:55;;;;;;;15.50;12.35;;;12.90;99.90;;;;;;5014736;28;20111;-75
2023/04/06 08:19:21;;;;;;;18.00;12.15;;;13.10;99.90;;;;;;5014927;28;20026;-76
2023/04/06 08:21:47;;;;;;;16.33;11.48;;;13.10;99.90;;;;;;5013664;28;20037;-76
2023/04/06 08:24:14;;;;;;;17.33;12.10;;;13.20;99.90;;;;;;5013744;28;20393;-76
2023/04/06 08:26:40;;;;;;;15.25;11.45;;;13.20;99.90;;;;;;5005323;28;20022;-76
2023/04/06 08:29:09;;;;;;;16.58;11.55;;;13.30;99.90;;;;;;5034617;28;20021;-76
2023/04/06 08:31:35;;;;;;;16.73;11.98;;;13.30;99.90;;;;;;5033924;28;20046;-76
2023/04/06 08:34:03;;;;;;;16.10;11.55;;;13.10;99.90;;;;;;5033236;28;20036;-76
2023/04/06 08:36:29;;;;;;;14.32;11.05;;;13.00;99.90;;;;;;5033209;28;20483;-76
2023/04/06 08:38:55;;;;;;;14.85;11.43;;;12.90;99.90;;;;;;5033068;28;20029;-76
2023/04/06 08:41:21;;;;;;;14.52;11.40;;;12.80;99.90;;;;;;5032722;28;20032;-75
2023/04/06 08:43:49;;;;;;;16.42;10.82;;;12.90;99.90;;;;;;5027186;28;20029;-76
2023/04/06 08:46:15;;;;;;;16.10;10.90;;;12.90;99.90;;;;;;4996693;28;20404;-76
2023/04/06 08:48:42;;;;;;;13.55;10.45;;;12.80;99.90;;;;;;5014340;28;20040;-75
2023/04/06 08:51:09;;;;;;;12.13;10.38;;;12.80;99.90;;;;;;5010373;28;20045;-76
2023/04/06 08:53:36;;;;;;;12.65;10.85;;;12.80;99.90;;;;;;5032886;28;20468;-76
2023/04/06 08:56:03;;;;;;;11.80;10.55;;;12.70;99.90;;;;;;4999273;28;20392;-76
2023/04/06 08:58:34;;;;;;;15.55;11.10;;;12.70;99.90;;;;;;5032738;28;20376;-76
2023/04/06 09:01:01;;;;;;;11.38;10.13;;;12.70;99.90;;;;;;4999679;28;20036;-76
2023/04/06 09:03:28;;;;;;;13.10;11.07;;;12.80;99.90;;;;;;5032374;28;20038;-76
2023/04/06 09:05:54;;;;;;;12.23;10.07;;;13.00;99.90;;;;;;5016559;28;20025;-76
2023/04/06 09:08:20;;;;;;;12.43;9.50;;;13.00;99.90;;;;;;5016045;28;20033;-76
2023/04/06 09:10:46;;;;;;;12.60;9.32;;;13.10;99.90;;;;;;5032408;28;20037;-75
2023/04/06 09:13:12;;;;;;;11.48;8.98;;;13.20;99.90;;;;;;5016121;28;20029;-76
2023/04/06 09:15:39;;;;;;;10.20;8.85;;;13.20;99.90;;;;;;5032536;28;20041;-76
2023/04/06 09:18:05;;;;;;;11.82;8.55;;;13.30;99.90;;;;;;5032206;28;20025;-76
2023/04/06 09:20:31;;;;;;;11.30;9.25;;;13.20;99.90;;;;;;5032277;28;20025;-76
2023/04/06 09:22:57;;;;;;;13.15;9.77;;;13.20;99.90;;;;;;5033593;28;20037;-76
2023/04/06 09:25:26;;;;;;;14.75;9.85;;;13.20;99.90;;;;;;5032078;28;20026;-76
2023/04/06 09:28:00;;;;;;;10.52;9.18;;;13.30;99.90;;;;;;5032251;28;20033;-76
2023/04/06 09:30:26;;;;;;;11.27;9.18;;;13.30;99.90;;;;;;5015007;28;20491;-76
2023/04/06 09:32:56;;;;;;;12.15;9.82;;;13.40;99.90;;;;;;5032106;28;20021;-76
2023/04/06 09:35:23;;;;;;;11.77;9.77;;;13.50;99.90;;;;;;5033099;28;20036;-76
2023/04/06 09:37:50;;;;;;;9.35;8.35;;;13.50;99.90;;;;;;5031752;28;20040;-76
2023/04/06 09:40:19;;;;;;;9.50;8.43;;;13.50;99.90;;;;;;5015107;28;20044;-76
2023/04/06 09:42:50;;;;;;;12.82;9.38;;;13.50;99.90;;;;;;5031909;28;20025;-76
2023/04/06 09:45:16;;;;;;;10.25;9.10;;;13.50;99.90;;;;;;5014052;28;20045;-75
2023/04/06 09:47:45;;;;;;;12.43;8.93;;;13.50;99.90;;;;;;5015554;28;20476;-76
2023/04/06 09:50:12;;;;;;;9.65;8.68;;;13.50;99.90;;;;;;5037891;28;20048;-76
2023/04/06 09:52:49;;;;;;;10.73;8.70;;;13.60;99.90;;;;;;5034836;28;20071;-75
2023/04/06 09:55:42;;;;;;;10.88;8.60;;;13.70;99.90;;;;;;5018837;28;20037;-76
2023/04/06 09:58:14;;;;;;;10.30;8.77;;;13.70;99.90;;;;;;5030561;28;20040;-76
2023/04/06 10:00:52;;;;;;;10.98;9.10;;;13.70;99.90;;;;;;5034614;28;20036;-75
2023/04/06 10:03:42;;;;;;;13.57;9.23;;;13.60;99.90;;;;;;5051576;28;20033;-75
2023/04/06 10:06:11;;;;;;;9.57;8.57;;;13.50;99.90;;;;;;5036751;28;20036;-76
2023/04/06 10:08:40;;;;;;;11.25;8.52;;;13.50;99.90;;;;;;5034584;28;20021;-76
2023/04/06 10:11:06;;;;;;;10.75;8.50;;;13.50;99.90;;;;;;5035291;28;20467;-76
2023/04/06 10:13:32;;;;;;;9.20;8.38;;;13.50;99.90;;;;;;5051291;28;20051;-76
2023/04/06 10:16:00;;;;;;;9.32;7.82;;;13.50;99.90;;;;;;5050850;28;20044;-76
2023/04/06 10:18:26;;;;;;;12.43;8.77;;;13.40;99.90;;;;;;5034896;28;20383;-76
2023/04/06 10:21:16;;;;;;;11.85;8.98;;;13.50;99.90;;;;;;5034775;28;20037;-76
2023/04/06 10:23:49;;;;;;;10.05;9.05;;;13.50;99.90;;;;;;5034810;28;20096;-76
2023/04/06 10:26:17;;;;;;;11.18;8.90;;;13.60;99.90;;;;;;5051795;28;20577;-76
2023/04/06 10:28:44;;;;;;;12.48;8.70;;;13.70;99.90;;;;;;5050898;28;20021;-76
2023/04/06 10:31:10;;;;;;;10.55;8.85;;;13.70;99.90;;;;;;5050373;28;20039;-76
2023/04/06 10:33:36;;;;;;;9.73;8.63;;;13.70;99.90;;;;;;5050960;28;20025;-76
2023/04/06 10:36:21;;;;;;;11.68;8.70;;;13.80;99.90;;;;;;5050781;28;20048;-76
2023/04/06 10:38:54;;;;;;;13.38;11.02;;;13.80;99.90;;;;;;5051066;28;20085;-76
2023/04/06 10:41:20;;;;;;;10.88;9.77;;;13.80;99.90;;;;;;5051076;28;20033;-76
2023/04/06 10:43:54;;;;;;;10.63;9.52;;;13.80;99.90;;;;;;5044026;28;20033;-76
2023/04/06 10:46:28;;;;;;;11.70;9.75;;;13.80;99.90;;;;;;5015061;28;20034;-76
2023/04/06 10:48:54;;;;;;;10.35;8.52;;;13.90;99.90;;;;;;5031117;28;20476;-77
2023/04/06 10:51:27;;;;;;;9.15;8.18;;;14.00;99.90;;;;;;5046117;28;20041;-76
2023/04/06 10:53:53;;;;;;;10.48;8.55;;;14.00;99.90;;;;;;5034786;28;20387;-76
2023/04/06 10:56:22;;;;;;;10.30;8.35;;;14.10;99.90;;;;;;5050745;28;20475;-76
2023/04/06 10:58:49;;;;;;;8.52;7.65;;;14.30;99.90;;;;;;5050996;28;20017;-76
2023/04/06 11:01:17;;;;;;;10.48;8.70;;;14.30;99.90;;;;;;5034097;28;20036;-76
2023/04/06 11:03:47;;;;;;;11.73;8.00;;;14.30;99.90;;;;;;5034548;28;20025;-76
2023/04/06 11:06:24;;;;;;;8.88;7.90;;;14.30;99.90;;;;;;5051698;28;20353;-76
2023/04/06 11:08:51;;;;;;;9.00;7.35;;;14.30;99.90;;;;;;5034304;28;20052;-76
2023/04/06 11:11:18;;;;;;;8.75;7.82;;;14.20;99.90;;;;;;5051860;28;20037;-75
2023/04/06 11:13:50;;;;;;;8.57;7.68;;;14.20;99.90;;;;;;5050644;28;20028;-76
2023/04/06 11:16:18;;;;;;;10.63;8.30;;;14.20;99.90;;;;;;5033530;28;20033;-76
2023/04/06 11:18:51;;;;;;;12.27;8.00;;;14.10;99.90;;;;;;5050586;28;20021;-76
2023/04/06 11:21:18;;;;;;;9.45;7.55;;;14.20;99.90;;;;;;5033614;28;20048;-76
2023/04/06 11:23:45;;;;;;;8.43;6.97;;;14.20;99.90;;;;;;5034186;28;20021;-76
2023/04/06 11:26:12;;;;;;;7.35;6.65;;;14.30;99.90;;;;;;5051730;28;20040;-76
2023/04/06 11:28:40;;;;;;;11.80;7.82;;;14.40;99.90;;;;;;5050029;28;20512;-76
2023/04/06 11:31:06;;;;;;;7.75;6.55;;;14.40;99.90;;;;;;5049881;28;20100;-76
2023/04/06 11:33:38;;;;;;;9.15;7.70;;;14.40;99.90;;;;;;5050476;28;20029;-76
2023/04/06 11:36:05;;;;;;;9.13;7.82;;;14.40;99.90;;;;;;5051398;28;20391;-76
2023/04/06 11:38:31;;;;;;;9.05;8.15;;;14.30;99.90;;;;;;5051661;28;20033;-76
2023/04/06 11:40:57;;;;;;;9.52;8.55;;;14.40;99.90;;;;;;5053851;28;20037;-76
2023/04/06 11:43:30;;;;;;;11.90;8.23;;;14.50;99.90;;;;;;5049827;28;20037;-76
2023/04/06 11:46:01;;;;;;;8.82;7.93;;;14.40;99.90;;;;;;5033748;28;20029;-75
2023/04/06 11:48:28;;;;;;;11.23;8.75;;;14.30;99.90;;;;;;5033834;28;20026;-76
2023/04/06 11:51:01;;;;;;;8.77;7.97;;;14.30;99.90;;;;;;5045951;28;20052;-76
2023/04/06 11:53:28;;;;;;;8.30;7.50;;;14.20;99.90;;;;;;5054048;28;20036;-76
2023/04/06 11:55:54;;;;;;;7.63;6.93;;;14.20;99.90;;;;;;5053929;28;20029;-76
2023/04/06 11:58:21;;;;;;;8.10;7.30;;;14.20;99.90;;;;;;5037287;28;20029;-76
2023/04/06 12:00:47;;;;;;;11.02;7.45;;;14.20;99.90;;;;;;5052889;28;20033;-76
2023/04/06 12:03:13;;;;;;;9.52;7.10;;;14.20;99.90;;;;;;5054725;28;20399;-76
2023/04/06 12:05:39;;;;;;;9.32;8.05;;;14.20;99.90;;;;;;5053854;28;20029;-76
2023/04/06 12:08:05;;;;;;;7.72;6.90;;;14.20;99.90;;;;;;5054806;28;20048;-76
2023/04/06 12:10:31;;;;;;;8.38;7.25;;;14.30;99.90;;;;;;5054700;28;20028;-76
2023/04/06 12:12:57;;;;;;;10.70;7.38;;;14.30;99.90;;;;;;5036520;28;20041;-76
2023/04/06 12:15:23;;;;;;;7.93;7.15;;;14.30;99.90;;;;;;5052581;28;20097;-75
2023/04/06 12:17:50;;;;;;;7.90;7.10;;;14.30;99.90;;;;;;5054408;28;20037;-76
2023/04/06 12:20:16;;;;;;;6.85;6.15;;;14.30;99.90;;;;;;5054613;28;20033;-76
2023/04/06 12:22:42;;;;;;;6.50;5.90;;;14.30;99.90;;;;;;5054610;28;20032;-76
2023/04/06 12:25:08;;;;;;;7.68;6.90;;;14.40;99.90;;;;;;5036889;28;20032;-76
2023/04/06 12:27:34;;;;;;;7.43;6.72;;;14.50;99.90;;;;;;5054366;28;20033;-76
2023/04/06 12:30:01;;;;;;;7.47;6.47;;;14.50;99.90;;;;;;5036137;28;20045;-76